Time;durP1;ratioP1;P1;durP2;ratioP2;P2;SDS_P1;SDS_P2;PMS_P1;PMS_P2;Temp;Humidity;BMP_temperature;BMP_pressure;BME280_temperature;BME280_humidity;BME280_pressure;Samples;Min_cycle;Max_cycle;Signal;HPM_P1;HPM_P2
2023/08/04 00:02:13;;;;;;;3.40;1.50;;;;;;;;;;108102;1271;39782;-39
2023/08/04 00:04:49;;;;;;;4.20;1.90;;;;;;;;;;108023;1260;38438;-39
2023/08/04 00:07:23;;;;;;;3.60;1.70;;;;;;;;;;108082;1269;41540;-39
2023/08/04 00:09:57;;;;;;;3.80;1.50;;;;;;;;;;108103;1269;40399;-39
2023/08/04 00:12:30;;;;;;;3.90;1.70;;;;;;;;;;108088;1263;40833;-40
2023/08/04 00:15:04;;;;;;;3.70;1.60;;;;;;;;;;108051;1260;39831;-38
2023/08/04 00:17:41;;;;;;;4.20;1.80;;;;;;;;;;108096;1272;40201;-39
2023/08/04 00:20:15;;;;;;;4.10;2.00;;;;;;;;;;108111;1272;40262;-39
2023/08/04 00:22:49;;;;;;;3.80;1.70;;;;;;;;;;108093;1271;39745;-37
2023/08/04 00:25:22;;;;;;;4.00;1.70;;;;;;;;;;108039;1259;38818;-38
2023/08/04 00:27:56;;;;;;;4.30;1.70;;;;;;;;;;108084;1263;39651;-39
2023/08/04 00:30:30;;;;;;;4.60;1.90;;;;;;;;;;108100;1272;40507;-39
2023/08/04 00:33:03;;;;;;;4.40;1.60;;;;;;;;;;108102;1272;39754;-39
2023/08/04 00:35:37;;;;;;;4.20;1.80;;;;;;;;;;108050;1260;38867;-40
2023/08/04 00:38:11;;;;;;;3.60;1.60;;;;;;;;;;108082;1260;41099;-39
2023/08/04 00:40:44;;;;;;;4.40;1.80;;;;;;;;;;108105;1272;41783;-39
2023/08/04 00:43:18;;;;;;;3.70;1.60;;;;;;;;;;108100;1263;39428;-39
2023/08/04 00:45:52;;;;;;;5.10;1.90;;;;;;;;;;108047;1263;38774;-39
2023/08/04 00:48:26;;;;;;;3.20;1.50;;;;;;;;;;108077;1263;41091;-39
2023/08/04 00:51:00;;;;;;;3.80;1.60;;;;;;;;;;108085;1263;40643;-39
2023/08/04 00:53:34;;;;;;;3.80;1.60;;;;;;;;;;108077;1262;40824;-39
2023/08/04 00:56:07;;;;;;;4.00;1.70;;;;;;;;;;108043;1263;39628;-39
2023/08/04 00:58:41;;;;;;;3.90;1.90;;;;;;;;;;108078;1275;39900;-39
2023/08/04 01:01:14;;;;;;;3.70;1.70;;;;;;;;;;108086;1271;40376;-39
2023/08/04 01:03:49;;;;;;;3.80;1.60;;;;;;;;;;108073;1272;40981;-39
2023/08/04 01:06:33;;;;;;;4.40;1.60;;;;;;;;;;108052;1263;39934;-39
2023/08/04 01:09:17;;;;;;;3.60;1.60;;;;;;;;;;107935;1265;39724;-39
2023/08/04 01:11:57;;;;;;;3.60;1.50;;;;;;;;;;108094;1272;41637;-39
2023/08/04 01:14:33;;;;;;;3.90;1.60;;;;;;;;;;108065;1272;39751;-39
2023/08/04 01:17:29;;;;;;;4.20;1.80;;;;;;;;;;108066;1263;39545;-39
2023/08/04 01:20:04;;;;;;;3.90;1.60;;;;;;;;;;108115;1271;40338;-39
2023/08/04 01:22:41;;;;;;;3.70;1.70;;;;;;;;;;108365;1266;42009;-39
2023/08/04 01:25:15;;;;;;;3.70;1.40;;;;;;;;;;108365;1271;39343;-39
2023/08/04 01:27:57;;;;;;;3.90;1.60;;;;;;;;;;108308;1267;38483;-39
2023/08/04 01:30:32;;;;;;;3.50;1.50;;;;;;;;;;108340;1261;40814;-39
2023/08/04 01:33:05;;;;;;;3.70;1.70;;;;;;;;;;108361;1257;41661;-39
2023/08/04 01:35:40;;;;;;;3.20;1.40;;;;;;;;;;108349;1259;39628;-39
2023/08/04 01:38:13;;;;;;;3.80;1.70;;;;;;;;;;108443;1259;45528;-39
2023/08/04 01:40:47;;;;;;;3.80;1.60;;;;;;;;;;108338;1269;39819;-39
2023/08/04 01:43:21;;;;;;;4.10;1.50;;;;;;;;;;108347;1259;40456;-39
2023/08/04 01:45:55;;;;;;;4.00;1.60;;;;;;;;;;108362;1260;40973;-39
2023/08/04 01:48:29;;;;;;;3.60;1.50;;;;;;;;;;108454;1259;44222;-39
2023/08/04 01:51:03;;;;;;;4.10;1.80;;;;;;;;;;108397;1271;39546;-39
2023/08/04 01:53:36;;;;;;;4.20;1.60;;;;;;;;;;108343;1257;41972;-39
2023/08/04 01:56:09;;;;;;;3.70;1.40;;;;;;;;;;108351;1257;41049;-40
2023/08/04 01:58:43;;;;;;;4.00;1.80;;;;;;;;;;108246;1262;46424;-40
2023/08/04 02:01:16;;;;;;;3.40;1.60;;;;;;;;;;108366;1269;39583;-40
2023/08/04 02:03:50;;;;;;;3.30;1.40;;;;;;;;;;108405;1267;41718;-39
2023/08/04 02:06:24;;;;;;;3.90;1.60;;;;;;;;;;108395;1269;39988;-40
2023/08/04 02:08:57;;;;;;;3.50;1.60;;;;;;;;;;108201;1259;175564;-40
2023/08/04 02:11:31;;;;;;;3.90;1.80;;;;;;;;;;108345;1264;39792;-39
2023/08/04 02:14:05;;;;;;;3.30;1.50;;;;;;;;;;108337;1257;41742;-39
2023/08/04 02:16:39;;;;;;;3.90;1.60;;;;;;;;;;108398;1259;39617;-39
2023/08/04 02:19:13;;;;;;;4.00;1.50;;;;;;;;;;108300;1259;44538;-40
2023/08/04 02:21:49;;;;;;;3.40;1.60;;;;;;;;;;108351;1267;39859;-39
2023/08/04 02:24:22;;;;;;;3.50;1.60;;;;;;;;;;108365;1258;42031;-39
2023/08/04 02:26:56;;;;;;;3.50;1.60;;;;;;;;;;108353;1260;40956;-40
2023/08/04 02:29:29;;;;;;;4.20;1.40;;;;;;;;;;108315;1257;43689;-39
2023/08/04 02:32:03;;;;;;;3.60;1.40;;;;;;;;;;108356;1266;41997;-39
2023/08/04 02:34:36;;;;;;;3.30;1.50;;;;;;;;;;108336;1269;42114;-39
2023/08/04 02:37:10;;;;;;;4.20;1.70;;;;;;;;;;108335;1267;39705;-39
2023/08/04 02:39:43;;;;;;;3.40;1.50;;;;;;;;;;108332;1259;47596;-39
2023/08/04 02:42:17;;;;;;;3.40;1.50;;;;;;;;;;108199;1259;175233;-40
2023/08/04 02:44:56;;;;;;;3.50;1.50;;;;;;;;;;108349;1259;40429;-39
2023/08/04 02:47:30;;;;;;;3.60;1.60;;;;;;;;;;108388;1259;39694;-39
2023/08/04 02:50:04;;;;;;;3.20;1.40;;;;;;;;;;108292;1259;43779;-39
2023/08/04 02:52:39;;;;;;;3.70;1.50;;;;;;;;;;108354;1257;40993;-39
2023/08/04 02:55:13;;;;;;;3.20;1.40;;;;;;;;;;108369;1269;40771;-40
2023/08/04 02:57:51;;;;;;;3.90;1.70;;;;;;;;;;108351;1267;39974;-39
2023/08/04 03:00:26;;;;;;;3.40;1.40;;;;;;;;;;108337;1259;44528;-40
2023/08/04 03:02:59;;;;;;;3.40;1.40;;;;;;;;;;108327;1271;40822;-39
2023/08/04 03:05:38;;;;;;;4.10;1.60;;;;;;;;;;108350;1267;40502;-39
2023/08/04 03:08:11;;;;;;;3.50;1.30;;;;;;;;;;108409;1257;39700;-39
2023/08/04 03:10:45;;;;;;;4.20;1.70;;;;;;;;;;108322;1259;46152;-39
2023/08/04 03:13:19;;;;;;;3.10;1.40;;;;;;;;;;108342;1271;39656;-39
2023/08/04 03:16:01;;;;;;;3.50;1.40;;;;;;;;;;108332;1260;40460;-39
2023/08/04 03:18:35;;;;;;;3.50;1.60;;;;;;;;;;108349;1269;41140;-39
2023/08/04 03:21:08;;;;;;;3.50;1.50;;;;;;;;;;108325;1269;39811;-40
2023/08/04 03:23:43;;;;;;;3.10;1.50;;;;;;;;;;108256;1269;175561;-39
2023/08/04 03:26:19;;;;;;;3.80;1.40;;;;;;;;;;108363;1269;41004;-39
2023/08/04 03:28:56;;;;;;;4.20;1.60;;;;;;;;;;108334;1269;39896;-40
2023/08/04 03:31:30;;;;;;;3.40;1.40;;;;;;;;;;108357;1269;45952;-40
2023/08/04 03:34:03;;;;;;;3.60;1.40;;;;;;;;;;108381;1273;39623;-40
2023/08/04 03:36:37;;;;;;;3.80;1.60;;;;;;;;;;108347;1269;40656;-40
2023/08/04 03:39:10;;;;;;;4.10;1.60;;;;;;;;;;108311;1259;39583;-40
2023/08/04 03:41:43;;;;;;;3.10;1.40;;;;;;;;;;108363;1269;45922;-40
2023/08/04 03:44:18;;;;;;;4.20;1.70;;;;;;;;;;108321;1269;40032;-40
2023/08/04 03:46:51;;;;;;;3.90;1.60;;;;;;;;;;108324;1269;41762;-40
2023/08/04 03:49:25;;;;;;;3.60;1.50;;;;;;;;;;108312;1269;39821;-40
2023/08/04 03:52:00;;;;;;;3.80;1.50;;;;;;;;;;108309;1268;45860;-38
2023/08/04 03:54:34;;;;;;;3.60;1.50;;;;;;;;;;108365;1256;40865;-37
2023/08/04 03:57:08;;;;;;;3.70;1.40;;;;;;;;;;108331;1269;40527;-37
2023/08/04 03:59:42;;;;;;;3.50;1.40;;;;;;;;;;108378;1258;39528;-37
2023/08/04 04:02:15;;;;;;;3.70;1.50;;;;;;;;;;108348;1272;45310;-40
2023/08/04 04:04:49;;;;;;;3.50;1.40;;;;;;;;;;108347;1267;41172;-39
2023/08/04 04:07:23;;;;;;;3.50;1.60;;;;;;;;;;108356;1269;40395;-39
2023/08/04 04:09:57;;;;;;;3.30;1.40;;;;;;;;;;108359;1272;39726;-39
2023/08/04 04:12:30;;;;;;;4.00;1.80;;;;;;;;;;108322;1272;45030;-39
2023/08/04 04:15:05;;;;;;;3.20;1.40;;;;;;;;;;108341;1269;39672;-39
2023/08/04 04:17:39;;;;;;;3.30;1.40;;;;;;;;;;108347;1269;40473;-40
2023/08/04 04:20:14;;;;;;;3.00;1.30;;;;;;;;;;108340;1269;41289;-40
2023/08/04 04:22:50;;;;;;;3.80;1.50;;;;;;;;;;108356;1270;46762;-39
2023/08/04 04:25:23;;;;;;;3.40;1.40;;;;;;;;;;108342;1261;40973;-40
2023/08/04 04:27:56;;;;;;;4.00;1.50;;;;;;;;;;108330;1257;41850;-39
2023/08/04 04:30:30;;;;;;;3.50;1.50;;;;;;;;;;108314;1269;40937;-39
2023/08/04 04:33:04;;;;;;;3.50;1.20;;;;;;;;;;108386;1258;44278;-40
2023/08/04 04:35:37;;;;;;;3.30;1.40;;;;;;;;;;108356;1268;40145;-40
2023/08/04 04:38:11;;;;;;;3.10;1.40;;;;;;;;;;108371;1268;40430;-39
2023/08/04 04:40:44;;;;;;;3.50;1.50;;;;;;;;;;108336;1257;40838;-40
2023/08/04 04:43:18;;;;;;;3.20;1.50;;;;;;;;;;108359;1255;45120;-39
2023/08/04 04:45:53;;;;;;;3.50;1.40;;;;;;;;;;108326;1271;39982;-39
2023/08/04 04:48:28;;;;;;;3.60;1.40;;;;;;;;;;108325;1271;42112;-39
2023/08/04 04:51:01;;;;;;;3.60;1.30;;;;;;;;;;108336;1258;39767;-39
2023/08/04 04:53:34;;;;;;;3.20;1.50;;;;;;;;;;108339;1269;46384;-39
2023/08/04 04:56:10;;;;;;;3.60;1.40;;;;;;;;;;108330;1257;39799;-39
2023/08/04 04:58:44;;;;;;;3.70;1.30;;;;;;;;;;108330;1257;41212;-39
2023/08/04 05:01:17;;;;;;;3.40;1.40;;;;;;;;;;108314;1259;40962;-40
2023/08/04 05:03:53;;;;;;;3.20;1.40;;;;;;;;;;108250;1270;175612;-39
2023/08/04 05:06:27;;;;;;;3.20;1.30;;;;;;;;;;108355;1260;39869;-39
2023/08/04 05:09:03;;;;;;;3.50;1.40;;;;;;;;;;108360;1260;40638;-39
2023/08/04 05:11:36;;;;;;;3.60;1.40;;;;;;;;;;108300;1260;40966;-40
2023/08/04 05:14:10;;;;;;;3.60;1.40;;;;;;;;;;108370;1270;45762;-39
2023/08/04 05:16:45;;;;;;;3.40;1.40;;;;;;;;;;108336;1257;41019;-40
2023/08/04 05:19:18;;;;;;;3.30;1.30;;;;;;;;;;108330;1269;40745;-39
2023/08/04 05:21:52;;;;;;;3.10;1.30;;;;;;;;;;108334;1260;39558;-39
2023/08/04 05:24:25;;;;;;;3.70;1.40;;;;;;;;;;108311;1269;43832;-39
2023/08/04 05:27:01;;;;;;;3.20;1.40;;;;;;;;;;108270;1272;39569;-40
2023/08/04 05:29:35;;;;;;;3.50;1.50;;;;;;;;;;108305;1269;42992;-39
2023/08/04 05:32:10;;;;;;;3.10;1.20;;;;;;;;;;108328;1258;39502;-39
2023/08/04 05:34:43;;;;;;;3.00;1.30;;;;;;;;;;108377;1257;47099;-39
2023/08/04 05:37:17;;;;;;;3.00;1.30;;;;;;;;;;108334;1259;39993;-39
2023/08/04 05:39:51;;;;;;;3.10;1.40;;;;;;;;;;108310;1257;41702;-40
2023/08/04 05:42:24;;;;;;;4.00;1.40;;;;;;;;;;108345;1257;39583;-39
2023/08/04 05:44:59;;;;;;;3.60;1.30;;;;;;;;;;108328;1272;46711;-39
2023/08/04 05:47:34;;;;;;;3.40;1.20;;;;;;;;;;108338;1268;40205;-40
2023/08/04 05:50:11;;;;;;;3.00;1.20;;;;;;;;;;108314;1259;41719;-39
2023/08/04 05:52:44;;;;;;;3.50;1.40;;;;;;;;;;108297;1269;42092;-40
2023/08/04 05:55:22;;;;;;;3.40;1.40;;;;;;;;;;108327;1260;46954;-40
2023/08/04 05:57:56;;;;;;;3.20;1.30;;;;;;;;;;108332;1259;41069;-39
2023/08/04 06:00:31;;;;;;;3.00;1.10;;;;;;;;;;108334;1272;41800;-40
2023/08/04 06:03:07;;;;;;;3.20;1.20;;;;;;;;;;108308;1272;40890;-40
2023/08/04 06:05:40;;;;;;;3.20;1.10;;;;;;;;;;108306;1257;45319;-40
2023/08/04 06:08:14;;;;;;;3.10;1.20;;;;;;;;;;108368;1271;40078;-40
2023/08/04 06:10:48;;;;;;;2.40;1.00;;;;;;;;;;108369;1264;40624;-40
2023/08/04 06:13:24;;;;;;;3.80;1.20;;;;;;;;;;108324;1268;39605;-40
2023/08/04 06:15:58;;;;;;;2.70;1.10;;;;;;;;;;108331;1257;46828;-40
2023/08/04 06:18:32;;;;;;;2.80;1.10;;;;;;;;;;108352;1269;39416;-39
2023/08/04 06:21:05;;;;;;;3.10;1.20;;;;;;;;;;108292;1271;41870;-39
2023/08/04 06:23:45;;;;;;;3.70;1.20;;;;;;;;;;108275;1273;39713;-39
2023/08/04 06:26:19;;;;;;;2.90;1.30;;;;;;;;;;108331;1269;45670;-40
2023/08/04 06:28:52;;;;;;;2.40;0.90;;;;;;;;;;108307;1269;41245;-38
2023/08/04 06:31:26;;;;;;;3.40;1.30;;;;;;;;;;108289;1269;41654;-39
2023/08/04 06:34:00;;;;;;;2.70;1.00;;;;;;;;;;108342;1271;39536;-40
2023/08/04 06:36:34;;;;;;;4.10;1.10;;;;;;;;;;108340;1260;44786;-40
2023/08/04 06:39:07;;;;;;;2.90;1.20;;;;;;;;;;107703;1269;894777;-40
2023/08/04 06:41:42;;;;;;;3.50;1.20;;;;;;;;;;108340;1272;41733;-38
2023/08/04 06:44:16;;;;;;;3.20;1.20;;;;;;;;;;108340;1256;40888;-39
2023/08/04 06:46:50;;;;;;;3.20;1.20;;;;;;;;;;108272;1256;46962;-38
2023/08/04 06:49:24;;;;;;;3.20;1.10;;;;;;;;;;108370;1272;40099;-38
2023/08/04 06:52:01;;;;;;;2.60;1.10;;;;;;;;;;108334;1264;40831;-38
2023/08/04 06:54:34;;;;;;;2.90;1.10;;;;;;;;;;108302;1257;39682;-36
2023/08/04 06:57:08;;;;;;;3.30;1.10;;;;;;;;;;108310;1269;45959;-36
2023/08/04 06:59:44;;;;;;;3.80;1.30;;;;;;;;;;108388;1260;39859;-36
2023/08/04 07:02:18;;;;;;;2.70;1.00;;;;;;;;;;108209;1271;175554;-37
2023/08/04 07:04:51;;;;;;;3.70;1.10;;;;;;;;;;108315;1269;39702;-37
2023/08/04 07:07:25;;;;;;;2.80;1.00;;;;;;;;;;108195;1269;175578;-37
2023/08/04 07:09:59;;;;;;;3.00;1.10;;;;;;;;;;108423;1270;40946;-37
2023/08/04 07:12:33;;;;;;;3.30;1.10;;;;;;;;;;108445;1270;40484;-37
2023/08/04 07:15:09;;;;;;;2.70;1.10;;;;;;;;;;108376;1260;39637;-37
2023/08/04 07:17:42;;;;;;;3.40;1.20;;;;;;;;;;108436;1269;45949;-37
2023/08/04 07:20:17;;;;;;;3.20;1.20;;;;;;;;;;108467;1270;39989;-37
2023/08/04 07:22:50;;;;;;;3.90;1.20;;;;;;;;;;108482;1270;41945;-37
2023/08/04 07:25:24;;;;;;;3.70;1.30;;;;;;;;;;108405;1267;39585;-37
2023/08/04 07:28:00;;;;;;;3.20;1.00;;;;;;;;;;108386;1269;46812;-37
2023/08/04 07:30:37;;;;;;;3.40;1.10;;;;;;;;;;108363;1269;39721;-37
2023/08/04 07:33:14;;;;;;;3.20;1.10;;;;;;;;;;108372;1269;40539;-37
2023/08/04 07:35:56;;;;;;;3.40;1.30;;;;;;;;;;108302;1269;39642;-38
2023/08/04 07:38:34;;;;;;;3.20;1.20;;;;;;;;;;108329;1260;38480;-38
2023/08/04 07:41:17;;;;;;;2.90;1.20;;;;;;;;;;108175;1260;175595;-38
2023/08/04 07:43:50;;;;;;;3.60;1.30;;;;;;;;;;108349;1266;41839;-38
2023/08/04 07:46:29;;;;;;;4.80;1.50;;;;;;;;;;108318;1260;39846;-37
2023/08/04 07:49:03;;;;;;;3.10;1.40;;;;;;;;;;108323;1263;38384;-37
2023/08/04 07:51:37;;;;;;;3.80;1.20;;;;;;;;;;108290;1271;41228;-37
2023/08/04 07:54:10;;;;;;;4.00;1.20;;;;;;;;;;108309;1256;41724;-38
2023/08/04 07:56:43;;;;;;;3.90;1.40;;;;;;;;;;108250;1257;40171;-38
2023/08/04 07:59:17;;;;;;;3.20;1.20;;;;;;;;;;108288;1269;38452;-38
2023/08/04 08:01:53;;;;;;;2.50;1.10;;;;;;;;;;108270;1272;40007;-38
2023/08/04 08:04:27;;;;;;;3.00;1.20;;;;;;;;;;108291;1269;40515;-38
2023/08/04 08:07:00;;;;;;;4.10;1.20;;;;;;;;;;108272;1257;39489;-38
2023/08/04 08:09:34;;;;;;;3.60;1.20;;;;;;;;;;108337;1273;38729;-38
2023/08/04 08:12:10;;;;;;;3.80;1.20;;;;;;;;;;108166;1270;175526;-38
2023/08/04 08:14:43;;;;;;;3.80;1.20;;;;;;;;;;108344;1273;43208;-38
2023/08/04 08:17:19;;;;;;;2.70;1.10;;;;;;;;;;108255;1257;39688;-38
2023/08/04 08:19:53;;;;;;;4.30;1.30;;;;;;;;;;108412;1256;38779;-37
2023/08/04 08:22:29;;;;;;;4.00;1.20;;;;;;;;;;108148;1261;39756;-37
2023/08/04 08:25:10;;;;;;;3.30;1.20;;;;;;;;;;108221;1272;40881;-37
2023/08/04 08:27:43;;;;;;;3.70;1.20;;;;;;;;;;108174;1261;41224;-37
2023/08/04 08:30:17;;;;;;;2.70;1.00;;;;;;;;;;108180;1270;38745;-37
2023/08/04 08:32:51;;;;;;;3.50;1.20;;;;;;;;;;108064;1271;175523;-37
2023/08/04 08:35:28;;;;;;;2.80;1.00;;;;;;;;;;108180;1273;40355;-36
2023/08/04 08:38:01;;;;;;;3.50;1.00;;;;;;;;;;108139;1265;40858;-38
2023/08/04 08:40:35;;;;;;;3.70;1.20;;;;;;;;;;108161;1273;38408;-38
2023/08/04 08:43:11;;;;;;;2.90;1.00;;;;;;;;;;108200;1273;40005;-39
2023/08/04 08:45:48;;;;;;;2.40;0.90;;;;;;;;;;108198;1273;40606;-39
2023/08/04 08:48:23;;;;;;;3.30;1.10;;;;;;;;;;108169;1262;39788;-38
2023/08/04 08:51:06;;;;;;;3.10;1.10;;;;;;;;;;108179;1273;40016;-39
2023/08/04 08:53:41;;;;;;;2.60;0.90;;;;;;;;;;108175;1262;40066;-39
2023/08/04 08:56:18;;;;;;;2.40;0.80;;;;;;;;;;108169;1272;40284;-39
2023/08/04 08:58:55;;;;;;;1.90;0.70;;;;;;;;;;108045;1262;39848;-38
2023/08/04 09:01:28;;;;;;;2.00;1.00;;;;;;;;;;108083;1267;38536;-39
2023/08/04 09:04:03;;;;;;;2.40;0.80;;;;;;;;;;108055;1273;100390;-39
2023/08/04 09:06:37;;;;;;;2.80;0.90;;;;;;;;;;108215;1272;41819;-39
2023/08/04 09:09:10;;;;;;;1.60;0.70;;;;;;;;;;107987;1262;175079;-39
2023/08/04 09:11:43;;;;;;;3.80;1.00;;;;;;;;;;107977;1268;175544;-37
2023/08/04 09:14:17;;;;;;;2.30;0.90;;;;;;;;;;108258;1273;40155;-39
2023/08/04 09:16:54;;;;;;;2.90;1.00;;;;;;;;;;108116;1261;40504;-37
2023/08/04 09:19:37;;;;;;;2.50;0.90;;;;;;;;;;108181;1270;41083;-37
2023/08/04 09:22:13;;;;;;;2.80;0.90;;;;;;;;;;108151;1269;38932;-35
2023/08/04 09:24:57;;;;;;;2.80;0.90;;;;;;;;;;108186;1257;39683;-37
2023/08/04 09:27:38;;;;;;;3.20;1.00;;;;;;;;;;108128;1269;40845;-37
2023/08/04 09:30:13;;;;;;;2.40;0.90;;;;;;;;;;108212;1269;45591;-37
2023/08/04 09:32:50;;;;;;;4.80;1.20;;;;;;;;;;108158;1278;38338;-36
2023/08/04 09:35:24;;;;;;;2.80;0.90;;;;;;;;;;108139;1273;39623;-37
2023/08/04 09:38:00;;;;;;;3.40;0.90;;;;;;;;;;108237;1259;40977;-36
2023/08/04 09:40:38;;;;;;;3.00;0.90;;;;;;;;;;108228;1262;46624;-36
2023/08/04 09:43:20;;;;;;;3.00;0.80;;;;;;;;;;108188;1270;38655;-36
2023/08/04 09:45:59;;;;;;;2.90;0.90;;;;;;;;;;108087;1267;39975;-35
2023/08/04 09:48:37;;;;;;;2.20;0.80;;;;;;;;;;108155;1263;40830;-36
2023/08/04 09:51:15;;;;;;;3.40;1.00;;;;;;;;;;108220;1263;40833;-37
2023/08/04 09:53:51;;;;;;;2.70;0.70;;;;;;;;;;108088;1264;39540;-38
2023/08/04 09:56:30;;;;;;;3.00;0.80;;;;;;;;;;108167;1272;39986;-37
2023/08/04 09:59:08;;;;;;;3.30;0.70;;;;;;;;;;108096;1257;41909;-37
2023/08/04 10:01:53;;;;;;;3.80;1.10;;;;;;;;;;108107;1264;41199;-37
2023/08/04 10:04:28;;;;;;;2.60;0.70;;;;;;;;;;108175;1263;38595;-37
2023/08/04 10:07:03;;;;;;;2.60;0.90;;;;;;;;;;108138;1257;39763;-36
2023/08/04 10:09:37;;;;;;;2.10;0.90;;;;;;;;;;108083;1268;40720;-36
2023/08/04 10:12:16;;;;;;;2.20;0.80;;;;;;;;;;108212;1261;41220;-36
2023/08/04 10:14:49;;;;;;;2.70;1.00;;;;;;;;;;108226;1263;39112;-36
2023/08/04 10:17:24;;;;;;;3.10;0.90;;;;;;;;;;108121;1273;40276;-36
2023/08/04 10:20:11;;;;;;;3.40;1.10;;;;;;;;;;107569;1261;890534;-36
2023/08/04 10:22:48;;;;;;;2.90;0.90;;;;;;;;;;108177;1270;40009;-39
2023/08/04 10:25:24;;;;;;;2.70;0.80;;;;;;;;;;108088;1273;38710;-37
2023/08/04 10:28:01;;;;;;;3.40;0.80;;;;;;;;;;108184;1273;41938;-37
2023/08/04 10:30:34;;;;;;;4.50;1.10;;;;;;;;;;108082;1271;40450;-37
2023/08/04 10:33:25;;;;;;;2.30;0.90;;;;;;;;;;108146;1273;39538;-36
2023/08/04 10:36:12;;;;;;;2.10;0.80;;;;;;;;;;108100;1267;40056;-36
2023/08/04 10:38:50;;;;;;;2.50;0.80;;;;;;;;;;108133;1273;40091;-35
2023/08/04 10:41:25;;;;;;;2.70;0.80;;;;;;;;;;108067;1263;175491;-35
2023/08/04 10:44:05;;;;;;;2.20;0.70;;;;;;;;;;108142;1256;42262;-36
2023/08/04 10:46:42;;;;;;;2.40;0.70;;;;;;;;;;108192;1270;38845;-35
2023/08/04 10:49:16;;;;;;;2.20;0.70;;;;;;;;;;108274;1268;39720;-35
2023/08/04 10:51:51;;;;;;;2.70;0.80;;;;;;;;;;108027;1263;40802;-36
2023/08/04 10:54:24;;;;;;;2.40;0.80;;;;;;;;;;108203;1273;41115;-36
2023/08/04 10:56:58;;;;;;;1.60;0.70;;;;;;;;;;108154;1270;38898;-36
2023/08/04 10:59:33;;;;;;;2.30;0.90;;;;;;;;;;108283;1267;42117;-37
2023/08/04 11:02:09;;;;;;;3.20;0.90;;;;;;;;;;108092;1270;41052;-35
2023/08/04 11:04:47;;;;;;;2.60;0.90;;;;;;;;;;108172;1260;39991;-34
2023/08/04 11:07:24;;;;;;;2.60;0.80;;;;;;;;;;108083;1269;38699;-35
2023/08/04 11:10:06;;;;;;;2.50;0.90;;;;;;;;;;108215;1273;41107;-35
2023/08/04 11:12:43;;;;;;;4.20;1.00;;;;;;;;;;108232;1265;47951;-36
2023/08/04 11:15:16;;;;;;;3.20;0.90;;;;;;;;;;108142;1262;40929;-35
2023/08/04 11:17:50;;;;;;;3.20;1.00;;;;;;;;;;108277;1273;39675;-35
2023/08/04 11:20:24;;;;;;;4.20;1.20;;;;;;;;;;107955;1263;41185;-36
2023/08/04 11:23:04;;;;;;;;;;;;;;;;;;107957;1264;175485;-36
2023/08/04 11:25:41;;;;;;;3.00;0.90;;;;;;;;;;108056;1263;39332;-36
2023/08/04 11:28:15;;;;;;;3.30;1.00;;;;;;;;;;108045;1262;41290;-36
2023/08/04 11:30:49;;;;;;;3.20;0.90;;;;;;;;;;108051;1260;39664;-36
2023/08/04 11:33:23;;;;;;;3.00;0.90;;;;;;;;;;108014;1269;48116;-36
2023/08/04 11:35:57;;;;;;;3.80;1.00;;;;;;;;;;108039;1268;39351;-36
2023/08/04 11:38:31;;;;;;;2.70;0.90;;;;;;;;;;108070;1262;39785;-36
2023/08/04 11:41:10;;;;;;;3.20;0.90;;;;;;;;;;108062;1270;40062;-36
2023/08/04 11:43:44;;;;;;;3.90;1.00;;;;;;;;;;108041;1266;47615;-34
2023/08/04 11:46:17;;;;;;;3.80;0.90;;;;;;;;;;108050;1263;40802;-35
2023/08/04 11:48:56;;;;;;;3.30;1.00;;;;;;;;;;107952;1264;38580;-36
2023/08/04 11:51:30;;;;;;;3.10;1.10;;;;;;;;;;108024;1268;39882;-35
2023/08/04 11:54:04;;;;;;;3.10;1.10;;;;;;;;;;108034;1273;47798;-35
2023/08/04 11:56:43;;;;;;;3.40;1.10;;;;;;;;;;108048;1266;40927;-34
2023/08/04 11:59:20;;;;;;;3.00;1.00;;;;;;;;;;108089;1269;38891;-34
2023/08/04 12:02:09;;;;;;;2.70;1.10;;;;;;;;;;108052;1259;40051;-35
2023/08/04 12:04:43;;;;;;;2.20;1.00;;;;;;;;;;108024;1273;40825;-35
2023/08/04 12:07:18;;;;;;;3.90;1.00;;;;;;;;;;108066;1257;41195;-37
2023/08/04 12:09:54;;;;;;;2.40;1.00;;;;;;;;;;108106;1273;38680;-36
2023/08/04 12:12:43;;;;;;;2.50;1.10;;;;;;;;;;108060;1260;40435;-35
2023/08/04 12:15:53;;;;;;;4.90;1.40;;;;;;;;;;110260;1254;40923;31
2023/08/04 12:18:31;;;;;;;3.10;1.20;;;;;;;;;;107738;1264;39903;-35
2023/08/04 12:21:17;;;;;;;3.20;1.10;;;;;;;;;;107742;1276;39937;-42
2023/08/04 12:23:53;;;;;;;2.60;1.00;;;;;;;;;;107740;1267;39846;-42
2023/08/04 12:26:36;;;;;;;3.60;1.20;;;;;;;;;;107769;1276;40521;-36
2023/08/04 12:29:19;;;;;;;3.00;1.00;;;;;;;;;;107670;1269;175147;-36
2023/08/04 12:31:53;;;;;;;3.70;1.30;;;;;;;;;;107784;1273;38461;-41
2023/08/04 12:34:33;;;;;;;;;;;;;;;;;;107776;1276;40080;-37
2023/08/04 12:37:27;;;;;;;3.80;1.20;;;;;;;;;;107707;1278;40904;-38
2023/08/04 12:40:21;;;;;;;3.10;0.90;;;;;;;;;;107797;1267;40442;-37
2023/08/04 12:43:15;;;;;;;4.20;1.10;;;;;;;;;;107770;1261;38572;-39
2023/08/04 12:46:06;;;;;;;4.20;1.20;;;;;;;;;;107789;1278;39490;-38
2023/08/04 12:48:51;;;;;;;3.10;1.10;;;;;;;;;;107678;1267;40801;-45
2023/08/04 12:51:45;;;;;;;4.30;1.30;;;;;;;;;;107728;1267;39952;-38
2023/08/04 12:54:23;;;;;;;2.90;1.00;;;;;;;;;;107753;1267;38707;-40
2023/08/04 12:57:10;;;;;;;2.90;1.10;;;;;;;;;;107748;1278;39825;-36
2023/08/04 12:59:52;;;;;;;3.50;1.10;;;;;;;;;;107743;1276;41856;-36
2023/08/04 13:02:37;;;;;;;3.10;1.00;;;;;;;;;;107784;1270;40771;-36
2023/08/04 13:05:12;;;;;;;2.90;1.20;;;;;;;;;;107819;1264;38284;-38
2023/08/04 13:08:08;;;;;;;3.10;1.00;;;;;;;;;;107772;1276;39945;-36
2023/08/04 13:11:03;;;;;;;3.20;1.10;;;;;;;;;;107791;1261;41816;-41
2023/08/04 13:13:37;;;;;;;4.10;1.20;;;;;;;;;;107728;1262;39567;-38
2023/08/04 13:16:20;;;;;;;3.40;1.00;;;;;;;;;;107797;1276;39932;-39
2023/08/04 13:18:53;;;;;;;3.10;1.10;;;;;;;;;;107825;1264;41537;-38
2023/08/04 13:21:28;;;;;;;3.60;1.10;;;;;;;;;;107839;1273;41709;-35
2023/08/04 13:24:22;;;;;;;2.80;0.90;;;;;;;;;;107751;1267;39579;-36
2023/08/04 13:26:55;;;;;;;3.10;1.10;;;;;;;;;;107846;1267;38406;-38
2023/08/04 13:29:29;;;;;;;3.00;0.90;;;;;;;;;;107851;1276;40036;-35
2023/08/04 13:32:03;;;;;;;2.70;1.00;;;;;;;;;;107782;1262;40275;-36
2023/08/04 13:34:37;;;;;;;2.70;1.10;;;;;;;;;;107805;1265;39725;-36
2023/08/04 13:37:11;;;;;;;1.90;0.90;;;;;;;;;;107842;1276;38436;-36
2023/08/04 13:39:45;;;;;;;2.40;1.00;;;;;;;;;;107831;1274;41405;-38
2023/08/04 13:42:19;;;;;;;3.10;1.00;;;;;;;;;;107210;1276;891987;-37
2023/08/04 13:44:54;;;;;;;3.10;1.00;;;;;;;;;;107769;1267;40892;-35
2023/08/04 13:47:27;;;;;;;2.10;1.00;;;;;;;;;;107779;1278;38476;-39
2023/08/04 13:50:01;;;;;;;4.90;1.20;;;;;;;;;;107804;1274;40058;-40
2023/08/04 13:52:35;;;;;;;2.80;0.90;;;;;;;;;;107792;1274;40946;-41
2023/08/04 13:55:10;;;;;;;2.10;0.80;;;;;;;;;;107776;1267;39899;-40
2023/08/04 13:57:44;;;;;;;2.60;1.00;;;;;;;;;;107866;1276;38384;-40
2023/08/04 14:00:27;;;;;;;12.00;2.90;;;;;;;;;;107809;1276;40359;-39
2023/08/04 14:03:00;;;;;;;7.40;1.50;;;;;;;;;;107859;1273;41445;-37
2023/08/04 14:05:36;;;;;;;5.40;1.40;;;;;;;;;;107147;1265;892945;-38
2023/08/04 14:08:09;;;;;;;5.60;1.10;;;;;;;;;;107832;1276;40280;-38
2023/08/04 14:10:49;;;;;;;4.00;1.20;;;;;;;;;;107850;1265;40248;-37
2023/08/04 14:13:23;;;;;;;4.20;0.90;;;;;;;;;;107843;1276;41029;-38
2023/08/04 14:15:59;;;;;;;3.10;0.90;;;;;;;;;;107786;1265;40423;-37
2023/08/04 14:18:33;;;;;;;2.90;1.00;;;;;;;;;;107879;1265;39095;-37
2023/08/04 14:21:08;;;;;;;2.50;1.10;;;;;;;;;;107847;1265;40511;-36
2023/08/04 14:23:43;;;;;;;4.70;1.00;;;;;;;;;;107866;1274;41247;-38
2023/08/04 14:26:20;;;;;;;3.00;1.00;;;;;;;;;;107826;1264;40255;-38
2023/08/04 14:28:57;;;;;;;2.80;0.90;;;;;;;;;;107880;1274;39113;-38
2023/08/04 14:31:35;;;;;;;1.80;0.80;;;;;;;;;;107852;1265;40135;-38
2023/08/04 14:34:12;;;;;;;2.30;0.80;;;;;;;;;;107819;1275;41245;-36
2023/08/04 14:36:51;;;;;;;1.80;0.80;;;;;;;;;;107811;1261;40285;-37
2023/08/04 14:39:25;;;;;;;2.20;0.80;;;;;;;;;;107845;1276;38999;-38
2023/08/04 14:41:59;;;;;;;2.70;0.80;;;;;;;;;;107827;1276;40271;-38
2023/08/04 14:44:56;;;;;;;2.10;1.00;;;;;;;;;;107830;1275;42402;-38
2023/08/04 14:47:34;;;;;;;2.50;1.00;;;;;;;;;;107823;1263;46448;-37
2023/08/04 14:50:11;;;;;;;2.40;0.80;;;;;;;;;;107840;1276;38885;-37
2023/08/04 14:52:51;;;;;;;1.90;0.80;;;;;;;;;;107875;1269;40272;-37
2023/08/04 14:55:31;;;;;;;2.40;0.80;;;;;;;;;;107855;1262;41014;-37
2023/08/04 14:58:11;;;;;;;2.60;0.90;;;;;;;;;;107848;1275;40223;-37
2023/08/04 15:00:53;;;;;;;2.00;0.70;;;;;;;;;;107880;1267;38813;-38
2023/08/04 15:03:37;;;;;;;2.60;0.80;;;;;;;;;;107875;1270;40269;-38
2023/08/04 15:06:23;;;;;;;2.00;0.80;;;;;;;;;;107754;1267;41309;-37
2023/08/04 15:09:20;;;;;;;2.10;0.90;;;;;;;;;;107825;1276;40019;-38
2023/08/04 15:11:58;;;;;;;2.20;0.90;;;;;;;;;;107820;1268;38956;-38
2023/08/04 15:14:43;;;;;;;2.30;0.80;;;;;;;;;;107837;1273;40465;-39
2023/08/04 15:17:21;;;;;;;1.80;0.90;;;;;;;;;;107782;1265;41179;-38
2023/08/04 15:20:02;;;;;;;2.60;1.00;;;;;;;;;;107832;1265;41493;-39
2023/08/04 15:22:45;;;;;;;3.40;0.90;;;;;;;;;;107815;1262;39004;-37
2023/08/04 15:25:27;;;;;;;1.90;0.90;;;;;;;;;;107836;1264;40055;-36